sensor_id;sensor_type;location;lat;lon;timestamp;temperature;humidity
3001;DHT22;1510;51.072;6.678;2023-05-10T00:00:53;12.80;99.90
3001;DHT22;1510;51.072;6.678;2023-05-10T00:03:23;12.80;99.90
3001;DHT22;1510;51.072;6.678;2023-05-10T00:05:50;12.90;99.90
3001;DHT22;1510;51.072;6.678;2023-05-10T00:08:18;12.80;99.90
3001;DHT22;1510;51.072;6.678;2023-05-10T00:10:45;12.90;99.90
3001;DHT22;1510;51.072;6.678;2023-05-10T00:13:13;12.90;99.90
3001;DHT22;1510;51.072;6.678;2023-05-10T00:15:39;12.90;99.90
3001;DHT22;1510;51.072;6.678;2023-05-10T00:18:07;12.90;99.90
3001;DHT22;1510;51.072;6.678;2023-05-10T00:20:35;13.00;99.90
3001;DHT22;1510;51.072;6.678;2023-05-10T00:23:02;13.00;99.90
3001;DHT22;1510;51.072;6.678;2023-05-10T00:25:31;13.00;99.90
3001;DHT22;1510;51.072;6.678;2023-05-10T00:27:57;12.90;99.90
3001;DHT22;1510;51.072;6.678;2023-05-10T00:30:26;12.90;99.90
3001;DHT22;1510;51.072;6.678;2023-05-10T00:32:53;12.90;99.90
3001;DHT22;1510;51.072;6.678;2023-05-10T00:35:20;12.90;99.90
3001;DHT22;1510;51.072;6.678;2023-05-10T00:37:48;12.90;99.90
3001;DHT22;1510;51.072;6.678;2023-05-10T00:40:15;12.80;99.90
3001;DHT22;1510;51.072;6.678;2023-05-10T00:42:43;12.80;99.90
3001;DHT22;1510;51.072;6.678;2023-05-10T00:45:10;12.80;99.90
3001;DHT22;1510;51.072;6.678;2023-05-10T00:47:37;12.70;99.90
3001;DHT22;1510;51.072;6.678;2023-05-10T00:50:08;12.70;99.90
3001;DHT22;1510;51.072;6.678;2023-05-10T00:52:35;12.70;99.90
3001;DHT22;1510;51.072;6.678;2023-05-10T00:55:03;12.70;99.90
3001;DHT22;1510;51.072;6.678;2023-05-10T00:57:31;12.60;99.90
3001;DHT22;1510;51.072;6.678;2023-05-10T00:59:59;12.60;99.90
3001;DHT22;1510;51.072;6.678;2023-05-10T01:02:26;12.60;99.90
3001;DHT22;1510;51.072;6.678;2023-05-10T01:04:53;12.60;99.90
3001;DHT22;1510;51.072;6.678;2023-05-10T01:07:20;12.60;99.90
3001;DHT22;1510;51.072;6.678;2023-05-10T01:09:47;12.60;99.90
3001;DHT22;1510;51.072;6.678;2023-05-10T01:12:14;12.60;99.90
3001;DHT22;1510;51.072;6.678;2023-05-10T01:14:41;12.50;99.90
3001;DHT22;1510;51.072;6.678;2023-05-10T01:17:11;12.50;99.90
3001;DHT22;1510;51.072;6.678;2023-05-10T01:19:39;12.50;99.90
3001;DHT22;1510;51.072;6.678;2023-05-10T01:22:27;12.50;99.90
3001;DHT22;1510;51.072;6.678;2023-05-10T01:25:28;12.60;99.90
3001;DHT22;1510;51.072;6.678;2023-05-10T01:31:28;12.50;99.90
3001;DHT22;1510;51.072;6.678;2023-05-10T01:34:01;12.50;99.90
3001;DHT22;1510;51.072;6.678;2023-05-10T01:36:35;12.50;99.90
3001;DHT22;1510;51.072;6.678;2023-05-10T01:39:12;12.50;99.90
3001;DHT22;1510;51.072;6.678;2023-05-10T01:41:47;12.50;99.90
3001;DHT22;1510;51.072;6.678;2023-05-10T01:44:31;12.50;99.90
3001;DHT22;1510;51.072;6.678;2023-05-10T01:47:04;12.50;99.90
3001;DHT22;1510;51.072;6.678;2023-05-10T01:49:53;12.60;99.90
3001;DHT22;1510;51.072;6.678;2023-05-10T01:52:25;12.50;99.90
3001;DHT22;1510;51.072;6.678;2023-05-10T01:54:56;12.50;99.90
3001;DHT22;1510;51.072;6.678;2023-05-10T01:57:30;12.50;99.90
3001;DHT22;1510;51.072;6.678;2023-05-10T01:59:59;12.40;99.90
3001;DHT22;1510;51.072;6.678;2023-05-10T02:02:29;12.50;99.90
3001;DHT22;1510;51.072;6.678;2023-05-10T02:04:59;12.50;99.90
3001;DHT22;1510;51.072;6.678;2023-05-10T02:07:27;12.50;99.90
3001;DHT22;1510;51.072;6.678;2023-05-10T02:09:55;12.40;99.90
3001;DHT22;1510;51.072;6.678;2023-05-10T02:12:24;12.50;99.90
3001;DHT22;1510;51.072;6.678;2023-05-10T02:14:53;12.40;99.90
3001;DHT22;1510;51.072;6.678;2023-05-10T02:17:21;12.40;99.90
3001;DHT22;1510;51.072;6.678;2023-05-10T02:19:49;12.30;99.90
3001;DHT22;1510;51.072;6.678;2023-05-10T02:22:20;12.40;99.90
3001;DHT22;1510;51.072;6.678;2023-05-10T02:24:48;12.40;99.90
3001;DHT22;1510;51.072;6.678;2023-05-10T02:27:17;12.50;99.90
3001;DHT22;1510;51.072;6.678;2023-05-10T02:29:54;12.50;99.90
3001;DHT22;1510;51.072;6.678;2023-05-10T02:32:33;12.50;99.90
3001;DHT22;1510;51.072;6.678;2023-05-10T02:35:21;12.50;99.90
3001;DHT22;1510;51.072;6.678;2023-05-10T02:37:54;12.60;99.90
3001;DHT22;1510;51.072;6.678;2023-05-10T02:40:22;12.60;99.90
3001;DHT22;1510;51.072;6.678;2023-05-10T02:42:54;12.60;99.90
3001;DHT22;1510;51.072;6.678;2023-05-10T02:45:24;12.60;99.90
3001;DHT22;1510;51.072;6.678;2023-05-10T02:47:53;12.50;99.90
3001;DHT22;1510;51.072;6.678;2023-05-10T02:50:21;12.50;99.90
3001;DHT22;1510;51.072;6.678;2023-05-10T02:52:50;12.50;99.90
3001;DHT22;1510;51.072;6.678;2023-05-10T02:55:22;12.50;99.90
3001;DHT22;1510;51.072;6.678;2023-05-10T02:57:52;12.50;99.90
3001;DHT22;1510;51.072;6.678;2023-05-10T03:00:22;12.50;99.90
3001;DHT22;1510;51.072;6.678;2023-05-10T03:02:49;12.50;99.90
3001;DHT22;1510;51.072;6.678;2023-05-10T03:05:15;12.60;99.90
3001;DHT22;1510;51.072;6.678;2023-05-10T03:07:42;12.60;99.90
3001;DHT22;1510;51.072;6.678;2023-05-10T03:10:10;12.60;99.90
3001;DHT22;1510;51.072;6.678;2023-05-10T03:12:47;12.50;99.90
3001;DHT22;1510;51.072;6.678;2023-05-10T03:15:22;12.50;99.90
3001;DHT22;1510;51.072;6.678;2023-05-10T03:17:55;12.50;99.90
3001;DHT22;1510;51.072;6.678;2023-05-10T03:20:25;12.60;99.90
3001;DHT22;1510;51.072;6.678;2023-05-10T03:22:55;12.60;99.90
3001;DHT22;1510;51.072;6.678;2023-05-10T03:25:23;12.60;99.90
3001;DHT22;1510;51.072;6.678;2023-05-10T03:27:53;12.60;99.90
3001;DHT22;1510;51.072;6.678;2023-05-10T03:30:21;12.70;99.90
3001;DHT22;1510;51.072;6.678;2023-05-10T03:32:49;12.70;99.90
3001;DHT22;1510;51.072;6.678;2023-05-10T03:35:15;12.70;99.90
3001;DHT22;1510;51.072;6.678;2023-05-10T03:37:42;12.70;99.90
3001;DHT22;1510;51.072;6.678;2023-05-10T03:40:09;12.70;99.90
3001;DHT22;1510;51.072;6.678;2023-05-10T03:42:36;12.70;99.90
3001;DHT22;1510;51.072;6.678;2023-05-10T03:45:06;12.80;99.90
3001;DHT22;1510;51.072;6.678;2023-05-10T03:47:33;12.70;99.90
3001;DHT22;1510;51.072;6.678;2023-05-10T03:50:00;12.70;99.90
3001;DHT22;1510;51.072;6.678;2023-05-10T03:52:27;12.80;99.90
3001;DHT22;1510;51.072;6.678;2023-05-10T03:54:54;12.80;99.90
3001;DHT22;1510;51.072;6.678;2023-05-10T03:57:21;12.80;99.90
3001;DHT22;1510;51.072;6.678;2023-05-10T03:59:48;12.80;99.90
3001;DHT22;1510;51.072;6.678;2023-05-10T04:02:16;12.90;99.90
3001;DHT22;1510;51.072;6.678;2023-05-10T04:04:43;12.80;99.90
3001;DHT22;1510;51.072;6.678;2023-05-10T04:07:09;12.80;99.90
3001;DHT22;1510;51.072;6.678;2023-05-10T04:09:36;12.90;99.90
3001;DHT22;1510;51.072;6.678;2023-05-10T04:12:04;12.80;99.90
3001;DHT22;1510;51.072;6.678;2023-05-10T04:14:31;12.90;99.90
3001;DHT22;1510;51.072;6.678;2023-05-10T04:16:59;12.80;99.90
3001;DHT22;1510;51.072;6.678;2023-05-10T04:19:30;12.80;99.90
3001;DHT22;1510;51.072;6.678;2023-05-10T04:21:58;12.70;99.90
3001;DHT22;1510;51.072;6.678;2023-05-10T04:24:26;12.70;99.90
3001;DHT22;1510;51.072;6.678;2023-05-10T04:26:54;12.60;99.90
3001;DHT22;1510;51.072;6.678;2023-05-10T04:29:22;12.60;99.90
3001;DHT22;1510;51.072;6.678;2023-05-10T04:31:49;12.60;99.90
3001;DHT22;1510;51.072;6.678;2023-05-10T04:34:16;12.60;99.90
3001;DHT22;1510;51.072;6.678;2023-05-10T04:36:44;12.60;99.90
3001;DHT22;1510;51.072;6.678;2023-05-10T04:39:11;12.50;99.90
3001;DHT22;1510;51.072;6.678;2023-05-10T04:41:39;12.60;99.90
3001;DHT22;1510;51.072;6.678;2023-05-10T04:44:06;12.60;99.90
3001;DHT22;1510;51.072;6.678;2023-05-10T04:46:33;12.70;99.90
3001;DHT22;1510;51.072;6.678;2023-05-10T04:49:00;12.70;99.90
3001;DHT22;1510;51.072;6.678;2023-05-10T04:51:26;12.70;99.90
3001;DHT22;1510;51.072;6.678;2023-05-10T04:53:55;12.70;99.90
3001;DHT22;1510;51.072;6.678;2023-05-10T04:56:21;12.70;99.90
3001;DHT22;1510;51.072;6.678;2023-05-10T04:58:48;12.70;99.90
3001;DHT22;1510;51.072;6.678;2023-05-10T05:01:15;12.70;99.90
3001;DHT22;1510;51.072;6.678;2023-05-10T05:03:42;12.80;99.90
3001;DHT22;1510;51.072;6.678;2023-05-10T05:06:09;12.80;99.90
3001;DHT22;1510;51.072;6.678;2023-05-10T05:08:36;12.80;99.90
3001;DHT22;1510;51.072;6.678;2023-05-10T05:11:04;12.90;99.90
3001;DHT22;1510;51.072;6.678;2023-05-10T05:13:31;12.90;99.90
3001;DHT22;1510;51.072;6.678;2023-05-10T05:16:01;12.90;99.90
3001;DHT22;1510;51.072;6.678;2023-05-10T05:18:29;13.00;99.90
3001;DHT22;1510;51.072;6.678;2023-05-10T05:20:55;12.90;99.90
3001;DHT22;1510;51.072;6.678;2023-05-10T05:23:22;13.00;99.90
3001;DHT22;1510;51.072;6.678;2023-05-10T05:25:51;12.90;99.90
3001;DHT22;1510;51.072;6.678;2023-05-10T05:28:21;13.00;99.90
3001;DHT22;1510;51.072;6.678;2023-05-10T05:30:48;13.00;99.90
3001;DHT22;1510;51.072;6.678;2023-05-10T05:33:15;13.00;99.90
3001;DHT22;1510;51.072;6.678;2023-05-10T05:35:42;13.00;99.90
3001;DHT22;1510;51.072;6.678;2023-05-10T05:38:13;13.10;99.90
3001;DHT22;1510;51.072;6.678;2023-05-10T05:40:39;13.10;99.90
3001;DHT22;1510;51.072;6.678;2023-05-10T05:43:06;13.10;99.90
3001;DHT22;1510;51.072;6.678;2023-05-10T05:45:34;13.10;99.90
3001;DHT22;1510;51.072;6.678;2023-05-10T05:48:01;13.10;99.90
3001;DHT22;1510;51.072;6.678;2023-05-10T05:50:28;13.10;99.90
3001;DHT22;1510;51.072;6.678;2023-05-10T05:52:55;13.10;99.90
3001;DHT22;1510;51.072;6.678;2023-05-10T05:55:22;13.10;99.90
3001;DHT22;1510;51.072;6.678;2023-05-10T05:57:51;13.00;99.90
3001;DHT22;1510;51.072;6.678;2023-05-10T06:00:19;13.10;99.90
3001;DHT22;1510;51.072;6.678;2023-05-10T06:02:48;13.10;99.90
3001;DHT22;1510;51.072;6.678;2023-05-10T06:05:15;13.20;99.90
3001;DHT22;1510;51.072;6.678;2023-05-10T06:07:41;13.20;99.90
3001;DHT22;1510;51.072;6.678;2023-05-10T06:10:10;13.00;99.90
3001;DHT22;1510;51.072;6.678;2023-05-10T06:12:37;13.00;99.90
3001;DHT22;1510;51.072;6.678;2023-05-10T06:15:05;13.00;99.90
3001;DHT22;1510;51.072;6.678;2023-05-10T06:17:32;12.90;99.90
3001;DHT22;1510;51.072;6.678;2023-05-10T06:20:01;13.00;99.90
3001;DHT22;1510;51.072;6.678;2023-05-10T06:22:28;12.90;99.90
3001;DHT22;1510;51.072;6.678;2023-05-10T06:24:55;12.90;99.90
3001;DHT22;1510;51.072;6.678;2023-05-10T06:27:22;12.90;99.90
3001;DHT22;1510;51.072;6.678;2023-05-10T06:29:48;13.00;99.90
3001;DHT22;1510;51.072;6.678;2023-05-10T06:32:15;13.10;99.90
3001;DHT22;1510;51.072;6.678;2023-05-10T06:34:42;13.20;99.90
3001;DHT22;1510;51.072;6.678;2023-05-10T06:37:11;13.10;99.90
3001;DHT22;1510;51.072;6.678;2023-05-10T06:39:38;13.20;99.90
3001;DHT22;1510;51.072;6.678;2023-05-10T06:42:05;13.30;99.90
3001;DHT22;1510;51.072;6.678;2023-05-10T06:44:31;13.30;99.90
3001;DHT22;1510;51.072;6.678;2023-05-10T06:46:58;13.40;99.90
3001;DHT22;1510;51.072;6.678;2023-05-10T06:49:25;13.40;99.90
3001;DHT22;1510;51.072;6.678;2023-05-10T06:51:52;13.30;99.90
3001;DHT22;1510;51.072;6.678;2023-05-10T06:54:20;13.30;99.90
3001;DHT22;1510;51.072;6.678;2023-05-10T06:56:48;13.30;99.90
3001;DHT22;1510;51.072;6.678;2023-05-10T06:59:15;13.40;99.90
3001;DHT22;1510;51.072;6.678;2023-05-10T07:01:42;13.50;99.90
3001;DHT22;1510;51.072;6.678;2023-05-10T07:04:09;13.60;99.90
3001;DHT22;1510;51.072;6.678;2023-05-10T07:06:36;13.60;99.90
3001;DHT22;1510;51.072;6.678;2023-05-10T07:09:03;13.60;99.90
3001;DHT22;1510;51.072;6.678;2023-05-10T07:11:31;13.70;99.90
3001;DHT22;1510;51.072;6.678;2023-05-10T07:13:58;13.80;99.90
3001;DHT22;1510;51.072;6.678;2023-05-10T07:16:25;13.90;99.90
3001;DHT22;1510;51.072;6.678;2023-05-10T07:18:51;14.20;99.90
3001;DHT22;1510;51.072;6.678;2023-05-10T07:21:19;14.20;99.90
3001;DHT22;1510;51.072;6.678;2023-05-10T07:23:45;14.50;99.90
3001;DHT22;1510;51.072;6.678;2023-05-10T07:26:12;14.60;99.90
3001;DHT22;1510;51.072;6.678;2023-05-10T07:28:41;14.40;99.90
3001;DHT22;1510;51.072;6.678;2023-05-10T07:31:08;14.30;99.90
3001;DHT22;1510;51.072;6.678;2023-05-10T07:33:35;14.10;99.90
3001;DHT22;1510;51.072;6.678;2023-05-10T07:36:02;14.00;99.90
3001;DHT22;1510;51.072;6.678;2023-05-10T07:38:29;13.90;99.90
3001;DHT22;1510;51.072;6.678;2023-05-10T07:40:59;13.90;99.90
3001;DHT22;1510;51.072;6.678;2023-05-10T07:43:25;14.00;99.90
3001;DHT22;1510;51.072;6.678;2023-05-10T07:45:54;14.10;99.90
3001;DHT22;1510;51.072;6.678;2023-05-10T07:48:23;14.20;99.90
3001;DHT22;1510;51.072;6.678;2023-05-10T07:50:49;14.40;99.90
3001;DHT22;1510;51.072;6.678;2023-05-10T07:53:16;14.30;99.90
3001;DHT22;1510;51.072;6.678;2023-05-10T07:55:44;14.40;99.90
3001;DHT22;1510;51.072;6.678;2023-05-10T07:58:11;14.50;99.90
3001;DHT22;1510;51.072;6.678;2023-05-10T08:00:38;14.80;99.90
3001;DHT22;1510;51.072;6.678;2023-05-10T08:03:08;15.10;99.90
3001;DHT22;1510;51.072;6.678;2023-05-10T08:05:34;15.40;99.90
3001;DHT22;1510;51.072;6.678;2023-05-10T08:08:01;15.80;99.90
3001;DHT22;1510;51.072;6.678;2023-05-10T08:10:28;16.00;99.90
3001;DHT22;1510;51.072;6.678;2023-05-10T08:12:55;16.30;99.90
3001;DHT22;1510;51.072;6.678;2023-05-10T08:15:23;16.60;99.90
3001;DHT22;1510;51.072;6.678;2023-05-10T08:17:51;16.70;99.90
3001;DHT22;1510;51.072;6.678;2023-05-10T08:20:20;16.90;99.90
3001;DHT22;1510;51.072;6.678;2023-05-10T08:22:47;16.90;99.90
3001;DHT22;1510;51.072;6.678;2023-05-10T08:25:14;16.70;99.90
3001;DHT22;1510;51.072;6.678;2023-05-10T08:27:41;16.60;99.90
3001;DHT22;1510;51.072;6.678;2023-05-10T08:30:08;16.30;99.90
3001;DHT22;1510;51.072;6.678;2023-05-10T08:32:35;16.20;99.90
3001;DHT22;1510;51.072;6.678;2023-05-10T08:35:03;16.20;99.90
3001;DHT22;1510;51.072;6.678;2023-05-10T08:37:32;16.20;99.90
3001;DHT22;1510;51.072;6.678;2023-05-10T08:39:59;16.40;99.90
3001;DHT22;1510;51.072;6.678;2023-05-10T08:42:28;16.80;99.90
3001;DHT22;1510;51.072;6.678;2023-05-10T08:44:57;16.80;99.90
3001;DHT22;1510;51.072;6.678;2023-05-10T08:47:25;16.80;99.90
3001;DHT22;1510;51.072;6.678;2023-05-10T08:49:53;16.70;99.90
3001;DHT22;1510;51.072;6.678;2023-05-10T08:52:21;16.50;99.90
3001;DHT22;1510;51.072;6.678;2023-05-10T08:54:51;16.30;99.90
3001;DHT22;1510;51.072;6.678;2023-05-10T08:57:19;16.10;99.90
3001;DHT22;1510;51.072;6.678;2023-05-10T08:59:46;15.90;99.90
3001;DHT22;1510;51.072;6.678;2023-05-10T09:02:13;15.90;99.90
3001;DHT22;1510;51.072;6.678;2023-05-10T09:04:40;15.40;99.90
3001;DHT22;1510;51.072;6.678;2023-05-10T09:07:07;15.30;99.90
3001;DHT22;1510;51.072;6.678;2023-05-10T09:09:34;15.10;99.90
3001;DHT22;1510;51.072;6.678;2023-05-10T09:12:03;15.10;99.90
3001;DHT22;1510;51.072;6.678;2023-05-10T09:14:30;14.90;99.90
3001;DHT22;1510;51.072;6.678;2023-05-10T09:17:00;14.70;99.90
3001;DHT22;1510;51.072;6.678;2023-05-10T09:19:28;14.60;99.90
3001;DHT22;1510;51.072;6.678;2023-05-10T09:21:54;14.40;99.90
3001;DHT22;1510;51.072;6.678;2023-05-10T09:24:25;14.40;99.90
3001;DHT22;1510;51.072;6.678;2023-05-10T09:26:52;14.60;99.90
3001;DHT22;1510;51.072;6.678;2023-05-10T09:29:20;14.90;99.90
3001;DHT22;1510;51.072;6.678;2023-05-10T09:31:49;15.20;99.90
3001;DHT22;1510;51.072;6.678;2023-05-10T09:34:18;15.60;99.90
3001;DHT22;1510;51.072;6.678;2023-05-10T09:36:53;15.90;99.90
3001;DHT22;1510;51.072;6.678;2023-05-10T09:39:20;16.20;99.90
3001;DHT22;1510;51.072;6.678;2023-05-10T09:41:47;16.30;99.90
3001;DHT22;1510;51.072;6.678;2023-05-10T09:44:16;16.50;99.90
3001;DHT22;1510;51.072;6.678;2023-05-10T09:46:50;16.90;99.90
3001;DHT22;1510;51.072;6.678;2023-05-10T09:49:18;17.10;99.90
3001;DHT22;1510;51.072;6.678;2023-05-10T09:51:47;17.00;99.90
3001;DHT22;1510;51.072;6.678;2023-05-10T09:54:23;17.00;99.90
3001;DHT22;1510;51.072;6.678;2023-05-10T09:56:50;16.70;99.90
3001;DHT22;1510;51.072;6.678;2023-05-10T09:59:18;16.50;99.90
3001;DHT22;1510;51.072;6.678;2023-05-10T10:01:50;16.30;99.90
3001;DHT22;1510;51.072;6.678;2023-05-10T10:04:17;16.20;99.90
3001;DHT22;1510;51.072;6.678;2023-05-10T10:06:46;16.20;99.90
3001;DHT22;1510;51.072;6.678;2023-05-10T10:09:14;16.60;99.90
3001;DHT22;1510;51.072;6.678;2023-05-10T10:11:40;17.60;99.90
3001;DHT22;1510;51.072;6.678;2023-05-10T10:14:07;18.40;99.90
3001;DHT22;1510;51.072;6.678;2023-05-10T10:16:34;18.40;99.90
3001;DHT22;1510;51.072;6.678;2023-05-10T10:19:03;18.90;99.90
3001;DHT22;1510;51.072;6.678;2023-05-10T10:21:30;18.80;99.90
3001;DHT22;1510;51.072;6.678;2023-05-10T10:23:57;18.40;99.90
3001;DHT22;1510;51.072;6.678;2023-05-10T10:26:26;18.30;99.90
3001;DHT22;1510;51.072;6.678;2023-05-10T10:29:04;18.40;99.90
3001;DHT22;1510;51.072;6.678;2023-05-10T10:31:39;18.40;99.90
3001;DHT22;1510;51.072;6.678;2023-05-10T10:34:09;18.00;99.90
3001;DHT22;1510;51.072;6.678;2023-05-10T10:36:44;18.00;99.90
3001;DHT22;1510;51.072;6.678;2023-05-10T10:39:11;18.40;99.90
3001;DHT22;1510;51.072;6.678;2023-05-10T10:41:40;18.30;99.90
3001;DHT22;1510;51.072;6.678;2023-05-10T10:44:35;18.30;99.90
3001;DHT22;1510;51.072;6.678;2023-05-10T10:47:05;18.40;99.90
3001;DHT22;1510;51.072;6.678;2023-05-10T10:49:43;18.40;99.90
3001;DHT22;1510;51.072;6.678;2023-05-10T10:52:22;18.00;99.90
3001;DHT22;1510;51.072;6.678;2023-05-10T10:54:52;17.90;99.90
3001;DHT22;1510;51.072;6.678;2023-05-10T10:57:21;17.90;99.90
3001;DHT22;1510;51.072;6.678;2023-05-10T10:59:53;18.20;99.90
3001;DHT22;1510;51.072;6.678;2023-05-10T11:02:45;18.10;99.90
3001;DHT22;1510;51.072;6.678;2023-05-10T11:05:42;18.00;99.90
3001;DHT22;1510;51.072;6.678;2023-05-10T11:08:26;18.20;99.90
3001;DHT22;1510;51.072;6.678;2023-05-10T11:11:02;18.20;99.90
3001;DHT22;1510;51.072;6.678;2023-05-10T11:13:34;18.20;99.90
3001;DHT22;1510;51.072;6.678;2023-05-10T11:16:18;18.00;99.90
3001;DHT22;1510;51.072;6.678;2023-05-10T11:18:58;18.30;99.90
3001;DHT22;1510;51.072;6.678;2023-05-10T11:21:28;18.10;99.90
3001;DHT22;1510;51.072;6.678;2023-05-10T11:23:56;17.90;99.90
3001;DHT22;1510;51.072;6.678;2023-05-10T11:26:24;18.10;99.90
3001;DHT22;1510;51.072;6.678;2023-05-10T11:28:52;18.00;99.90
3001;DHT22;1510;51.072;6.678;2023-05-10T11:31:21;18.30;99.90
3001;DHT22;1510;51.072;6.678;2023-05-10T11:33:50;18.60;99.90
3001;DHT22;1510;51.072;6.678;2023-05-10T11:36:19;18.80;99.90
3001;DHT22;1510;51.072;6.678;2023-05-10T11:38:48;18.80;99.90
3001;DHT22;1510;51.072;6.678;2023-05-10T11:41:16;19.00;99.90
3001;DHT22;1510;51.072;6.678;2023-05-10T11:43:45;18.80;99.90
3001;DHT22;1510;51.072;6.678;2023-05-10T11:46:14;19.20;99.90
3001;DHT22;1510;51.072;6.678;2023-05-10T11:48:42;19.50;99.90
3001;DHT22;1510;51.072;6.678;2023-05-10T11:51:10;20.20;99.90
3001;DHT22;1510;51.072;6.678;2023-05-10T11:53:37;20.80;99.90
3001;DHT22;1510;51.072;6.678;2023-05-10T11:56:07;20.50;99.80
3001;DHT22;1510;51.072;6.678;2023-05-10T11:58:34;20.00;99.00
3001;DHT22;1510;51.072;6.678;2023-05-10T12:01:02;20.40;98.60
3001;DHT22;1510;51.072;6.678;2023-05-10T12:03:30;20.10;98.30
3001;DHT22;1510;51.072;6.678;2023-05-10T12:05:58;20.50;96.30
3001;DHT22;1510;51.072;6.678;2023-05-10T12:08:27;20.70;95.40
3001;DHT22;1510;51.072;6.678;2023-05-10T12:11:07;22.20;96.00
3001;DHT22;1510;51.072;6.678;2023-05-10T12:13:38;23.40;89.20
3001;DHT22;1510;51.072;6.678;2023-05-10T12:16:16;23.00;88.80
3001;DHT22;1510;51.072;6.678;2023-05-10T12:18:43;22.30;81.80
3001;DHT22;1510;51.072;6.678;2023-05-10T12:21:10;21.80;87.70
3001;DHT22;1510;51.072;6.678;2023-05-10T12:23:38;21.40;90.70
3001;DHT22;1510;51.072;6.678;2023-05-10T12:26:07;21.60;90.60
3001;DHT22;1510;51.072;6.678;2023-05-10T12:28:35;21.50;90.20
3001;DHT22;1510;51.072;6.678;2023-05-10T12:31:02;21.20;84.40
3001;DHT22;1510;51.072;6.678;2023-05-10T12:33:36;21.30;84.00
3001;DHT22;1510;51.072;6.678;2023-05-10T12:36:05;21.90;86.70
3001;DHT22;1510;51.072;6.678;2023-05-10T12:38:33;22.30;76.90
3001;DHT22;1510;51.072;6.678;2023-05-10T12:41:01;23.40;76.80
3001;DHT22;1510;51.072;6.678;2023-05-10T12:43:30;22.40;78.10
3001;DHT22;1510;51.072;6.678;2023-05-10T12:45:57;23.00;81.70
3001;DHT22;1510;51.072;6.678;2023-05-10T12:48:23;22.00;78.60
3001;DHT22;1510;51.072;6.678;2023-05-10T12:50:50;22.30;81.50
3001;DHT22;1510;51.072;6.678;2023-05-10T12:53:17;23.00;80.20
3001;DHT22;1510;51.072;6.678;2023-05-10T12:55:44;23.00;77.90
3001;DHT22;1510;51.072;6.678;2023-05-10T12:58:11;23.30;78.30
3001;DHT22;1510;51.072;6.678;2023-05-10T13:00:39;23.10;72.90
3001;DHT22;1510;51.072;6.678;2023-05-10T13:03:06;22.10;72.00
3001;DHT22;1510;51.072;6.678;2023-05-10T13:05:33;22.30;78.30
3001;DHT22;1510;51.072;6.678;2023-05-10T13:08:00;22.00;80.00
3001;DHT22;1510;51.072;6.678;2023-05-10T13:10:28;21.60;79.70
3001;DHT22;1510;51.072;6.678;2023-05-10T13:12:55;21.20;77.00
3001;DHT22;1510;51.072;6.678;2023-05-10T13:15:22;20.90;81.80
3001;DHT22;1510;51.072;6.678;2023-05-10T13:17:50;20.50;82.30
3001;DHT22;1510;51.072;6.678;2023-05-10T13:20:17;20.00;86.10
3001;DHT22;1510;51.072;6.678;2023-05-10T13:22:44;19.50;88.50
3001;DHT22;1510;51.072;6.678;2023-05-10T13:25:11;19.10;91.00
3001;DHT22;1510;51.072;6.678;2023-05-10T13:27:39;18.60;92.00
3001;DHT22;1510;51.072;6.678;2023-05-10T13:30:07;18.30;92.30
3001;DHT22;1510;51.072;6.678;2023-05-10T13:32:35;18.00;94.30
3001;DHT22;1510;51.072;6.678;2023-05-10T13:35:04;17.80;97.50
3001;DHT22;1510;51.072;6.678;2023-05-10T13:37:31;17.80;98.40
3001;DHT22;1510;51.072;6.678;2023-05-10T13:40:00;17.60;95.30
3001;DHT22;1510;51.072;6.678;2023-05-10T13:42:28;17.60;97.60
3001;DHT22;1510;51.072;6.678;2023-05-10T13:44:55;17.50;98.60
3001;DHT22;1510;51.072;6.678;2023-05-10T13:47:21;17.50;99.60
3001;DHT22;1510;51.072;6.678;2023-05-10T13:49:48;17.40;98.90
3001;DHT22;1510;51.072;6.678;2023-05-10T13:52:17;17.60;99.90
3001;DHT22;1510;51.072;6.678;2023-05-10T13:54:45;17.70;99.90
3001;DHT22;1510;51.072;6.678;2023-05-10T13:57:12;18.20;99.90
3001;DHT22;1510;51.072;6.678;2023-05-10T13:59:39;18.40;96.70
3001;DHT22;1510;51.072;6.678;2023-05-10T14:02:06;18.30;97.60
3001;DHT22;1510;51.072;6.678;2023-05-10T14:04:33;18.60;96.70
3001;DHT22;1510;51.072;6.678;2023-05-10T14:07:01;18.90;94.60
3001;DHT22;1510;51.072;6.678;2023-05-10T14:09:29;19.10;91.30
3001;DHT22;1510;51.072;6.678;2023-05-10T14:11:56;19.50;90.80
3001;DHT22;1510;51.072;6.678;2023-05-10T14:14:23;20.20;90.30
3001;DHT22;1510;51.072;6.678;2023-05-10T14:16:50;20.00;90.50
3001;DHT22;1510;51.072;6.678;2023-05-10T14:19:17;20.00;90.40
3001;DHT22;1510;51.072;6.678;2023-05-10T14:21:44;20.00;90.10
3001;DHT22;1510;51.072;6.678;2023-05-10T14:24:11;19.70;84.70
3001;DHT22;1510;51.072;6.678;2023-05-10T14:26:39;19.70;89.00
3001;DHT22;1510;51.072;6.678;2023-05-10T14:29:06;19.60;87.00
3001;DHT22;1510;51.072;6.678;2023-05-10T14:31:33;19.40;89.40
3001;DHT22;1510;51.072;6.678;2023-05-10T14:34:00;19.20;89.90
3001;DHT22;1510;51.072;6.678;2023-05-10T14:36:27;19.20;90.50
3001;DHT22;1510;51.072;6.678;2023-05-10T14:38:54;19.40;91.40
3001;DHT22;1510;51.072;6.678;2023-05-10T14:41:21;19.30;91.50
3001;DHT22;1510;51.072;6.678;2023-05-10T14:43:49;19.20;91.30
3001;DHT22;1510;51.072;6.678;2023-05-10T14:46:17;19.10;91.40
3001;DHT22;1510;51.072;6.678;2023-05-10T14:48:44;19.20;92.30
3001;DHT22;1510;51.072;6.678;2023-05-10T14:51:11;19.30;92.20
3001;DHT22;1510;51.072;6.678;2023-05-10T14:53:38;19.30;91.40
3001;DHT22;1510;51.072;6.678;2023-05-10T14:56:05;19.70;91.50
3001;DHT22;1510;51.072;6.678;2023-05-10T14:58:32;19.90;90.40
3001;DHT22;1510;51.072;6.678;2023-05-10T15:01:00;20.00;86.10
3001;DHT22;1510;51.072;6.678;2023-05-10T15:03:27;19.90;87.20
3001;DHT22;1510;51.072;6.678;2023-05-10T15:05:54;19.90;90.40
3001;DHT22;1510;51.072;6.678;2023-05-10T15:08:21;19.80;85.90
3001;DHT22;1510;51.072;6.678;2023-05-10T15:10:49;19.80;87.20
3001;DHT22;1510;51.072;6.678;2023-05-10T15:13:16;20.10;86.20
3001;DHT22;1510;51.072;6.678;2023-05-10T15:15:43;20.20;86.30
3001;DHT22;1510;51.072;6.678;2023-05-10T15:18:11;20.20;86.30
3001;DHT22;1510;51.072;6.678;2023-05-10T15:20:38;20.20;86.90
3001;DHT22;1510;51.072;6.678;2023-05-10T15:23:05;20.50;86.50
3001;DHT22;1510;51.072;6.678;2023-05-10T15:25:31;20.50;83.40
3001;DHT22;1510;51.072;6.678;2023-05-10T15:28:00;20.50;82.70
3001;DHT22;1510;51.072;6.678;2023-05-10T15:30:27;20.30;87.20
3001;DHT22;1510;51.072;6.678;2023-05-10T15:32:54;20.60;86.60
3001;DHT22;1510;51.072;6.678;2023-05-10T15:35:22;20.40;84.60
3001;DHT22;1510;51.072;6.678;2023-05-10T15:37:49;20.30;86.30
3001;DHT22;1510;51.072;6.678;2023-05-10T15:40:16;20.00;86.10
3001;DHT22;1510;51.072;6.678;2023-05-10T15:42:43;19.70;85.80
3001;DHT22;1510;51.072;6.678;2023-05-10T15:45:10;19.40;85.50
3001;DHT22;1510;51.072;6.678;2023-05-10T15:47:37;19.30;87.00
3001;DHT22;1510;51.072;6.678;2023-05-10T15:50:06;19.10;88.10
3001;DHT22;1510;51.072;6.678;2023-05-10T15:52:34;19.10;91.70
3001;DHT22;1510;51.072;6.678;2023-05-10T15:55:01;18.90;90.30
3001;DHT22;1510;51.072;6.678;2023-05-10T15:57:29;18.90;91.10
3001;DHT22;1510;51.072;6.678;2023-05-10T15:59:56;18.70;90.50
3001;DHT22;1510;51.072;6.678;2023-05-10T16:02:23;18.60;91.10
3001;DHT22;1510;51.072;6.678;2023-05-10T16:04:49;18.50;91.10
3001;DHT22;1510;51.072;6.678;2023-05-10T16:07:16;18.50;92.00
3001;DHT22;1510;51.072;6.678;2023-05-10T16:09:44;18.30;91.00
3001;DHT22;1510;51.072;6.678;2023-05-10T16:12:11;18.10;90.90
3001;DHT22;1510;51.072;6.678;2023-05-10T16:14:38;18.00;92.30